createdAt,value
2022-08-01T00:04:14.137Z,3.07
2022-08-01T00:09:23.862Z,2.97
2022-08-01T00:14:32.680Z,2.60
2022-08-01T00:19:36.705Z,3.13
2022-08-01T00:24:40.185Z,3.10
2022-08-01T00:30:12.272Z,3.40
2022-08-01T00:35:09.266Z,3.57
2022-08-01T00:40:16.614Z,3.73
2022-08-01T00:45:21.860Z,2.93
2022-08-01T00:50:25.909Z,3.20
2022-08-01T00:55:30.001Z,3.40
2022-08-01T01:00:53.245Z,3.30
2022-08-01T01:06:10.173Z,2.90
2022-08-01T01:11:17.095Z,3.13
2022-08-01T01:16:24.404Z,3.60
2022-08-01T01:21:47.633Z,3.37
2022-08-01T01:26:59.664Z,3.70
2022-08-01T01:32:09.248Z,3.37
2022-08-01T01:37:17.256Z,3.60
2022-08-01T01:42:21.884Z,3.20
2022-08-01T01:47:28.107Z,2.93
2022-08-01T01:52:33.721Z,3.43
2022-08-01T01:57:41.397Z,3.33
2022-08-01T02:02:48.292Z,3.40
2022-08-01T02:07:53.727Z,3.63
2022-08-01T02:13:05.527Z,3.50
2022-08-01T02:18:12.768Z,3.33
2022-08-01T02:23:16.242Z,3.33
2022-08-01T02:28:29.331Z,3.40
2022-08-01T02:33:40.152Z,3.53
2022-08-01T02:38:45.748Z,3.67
2022-08-01T02:43:53.352Z,3.50
2022-08-01T02:49:01.774Z,3.30
2022-08-01T02:54:07.781Z,3.50
2022-08-01T02:59:15.699Z,3.63
2022-08-01T03:04:25.598Z,3.43
2022-08-01T03:09:31.628Z,3.33
2022-08-01T03:14:41.000Z,3.40
2022-08-01T03:19:48.789Z,3.63
2022-08-01T03:24:56.909Z,3.60
2022-08-01T03:30:04.557Z,3.50
2022-08-01T03:35:10.463Z,3.53
2022-08-01T03:40:20.053Z,3.90
2022-08-01T03:45:28.548Z,3.33
2022-08-01T03:50:35.638Z,3.93
2022-08-01T03:55:41.525Z,3.90
2022-08-01T04:00:45.604Z,3.57
2022-08-01T04:05:50.595Z,3.67
2022-08-01T04:10:54.113Z,3.70
2022-08-01T04:15:58.831Z,3.90
2022-08-01T04:21:03.719Z,3.50
2022-08-01T04:26:08.231Z,3.30
2022-08-01T04:31:13.293Z,4.00
2022-08-01T04:36:22.127Z,3.93
2022-08-01T04:41:27.276Z,3.53
2022-08-01T04:46:32.011Z,3.57
2022-08-01T04:51:37.856Z,3.17
2022-08-01T04:56:42.731Z,3.67
2022-08-01T05:01:51.869Z,3.40
2022-08-01T05:06:56.991Z,3.57
2022-08-01T05:12:00.709Z,3.57
2022-08-01T05:17:05.833Z,3.63
2022-08-01T05:22:12.391Z,3.50
2022-08-01T05:27:16.426Z,3.10
2022-08-01T05:32:20.220Z,3.67
2022-08-01T05:37:25.327Z,3.97
2022-08-01T05:42:29.382Z,4.20
2022-08-01T05:47:32.863Z,4.30
2022-08-01T05:52:38.068Z,3.37
2022-08-01T05:57:41.552Z,4.50
2022-08-01T06:02:50.720Z,3.60
2022-08-01T06:08:06.243Z,3.50
2022-08-01T06:13:09.700Z,3.50
2022-08-01T06:18:13.283Z,3.23
2022-08-01T06:23:31.542Z,3.10
2022-08-01T06:28:36.416Z,3.07
2022-08-01T06:33:40.010Z,3.00
2022-08-01T06:38:44.960Z,3.23
2022-08-01T06:43:48.468Z,3.23
2022-08-01T06:48:51.990Z,4.03
2022-08-01T06:53:57.009Z,3.30
2022-08-01T06:59:02.114Z,3.70
2022-08-01T07:04:06.591Z,3.90
2022-08-01T07:09:14.461Z,3.30
2022-08-01T07:14:18.291Z,3.10
2022-08-01T07:19:21.774Z,3.20
2022-08-01T07:24:26.862Z,3.63
2022-08-01T07:29:34.756Z,3.10
2022-08-01T07:34:38.341Z,3.20
2022-08-01T07:39:43.413Z,3.33
2022-08-01T07:44:46.856Z,3.03
2022-08-01T07:49:50.301Z,3.07
2022-08-01T07:54:55.222Z,3.03
2022-08-01T07:59:59.577Z,3.37
2022-08-01T08:05:03.192Z,2.93
2022-08-01T08:10:09.195Z,2.83
2022-08-01T08:15:12.953Z,2.97
2022-08-01T08:20:16.526Z,2.67
2022-08-01T08:25:23.080Z,2.70
2022-08-01T08:30:30.421Z,2.63
2022-08-01T08:35:53.371Z,2.40
2022-08-01T08:40:59.808Z,2.60
2022-08-01T08:46:04.202Z,2.27
2022-08-01T08:51:09.873Z,2.67
2022-08-01T08:56:15.802Z,2.50
2022-08-01T09:01:19.318Z,2.53
2022-08-01T09:06:27.652Z,2.47
2022-08-01T09:11:33.456Z,2.60
2022-08-01T09:16:38.663Z,2.53
2022-08-01T09:21:43.012Z,2.30
2022-08-01T09:26:48.889Z,2.17
2022-08-01T09:31:53.126Z,2.40
2022-08-01T09:36:59.359Z,2.30
2022-08-01T09:42:28.771Z,2.55
2022-08-01T09:47:40.495Z,2.00
2022-08-01T09:52:43.944Z,2.05
2022-08-01T09:58:02.033Z,2.85
2022-08-01T10:03:22.198Z,2.30
2022-08-01T10:08:27.835Z,2.10
2022-08-01T10:13:36.626Z,2.00
2022-08-01T10:18:44.433Z,2.20
2022-08-01T10:23:48.473Z,2.20
2022-08-01T10:28:57.625Z,2.05
2022-08-01T10:34:05.251Z,2.17
2022-08-01T10:39:08.891Z,2.20
2022-08-01T10:44:13.842Z,2.20
2022-08-01T10:49:19.835Z,2.30
2022-08-01T10:54:27.265Z,2.00
2022-08-01T10:59:50.470Z,1.85
2022-08-01T11:05:00.237Z,2.15
2022-08-01T11:10:14.591Z,2.10
2022-08-01T11:15:29.056Z,2.00
2022-08-01T11:20:39.479Z,2.97
2022-08-01T11:26:28.744Z,2.00
2022-08-01T11:31:38.373Z,1.60
2022-08-01T11:36:58.261Z,2.08
2022-08-01T11:42:22.333Z,1.90
2022-08-01T11:47:48.050Z,2.58
2022-08-01T11:53:00.085Z,2.08
2022-08-01T11:58:05.270Z,1.80
2022-08-01T12:03:15.172Z,1.65
2022-08-01T12:08:28.557Z,2.05
2022-08-01T12:13:42.978Z,1.80
2022-08-01T12:18:47.854Z,1.80
2022-08-01T12:24:03.253Z,1.80
2022-08-01T12:29:06.692Z,1.70
2022-08-01T12:34:31.259Z,1.90
2022-08-01T12:39:35.677Z,1.95
2022-08-01T12:44:46.511Z,2.30
2022-08-01T12:49:51.971Z,1.90
2022-08-01T12:55:11.223Z,2.03
2022-08-01T13:00:18.289Z,1.85
2022-08-01T13:05:28.039Z,2.00
2022-08-01T13:10:32.770Z,2.33
2022-08-01T13:15:41.502Z,2.13
2022-08-01T13:20:52.290Z,2.28
2022-08-01T13:25:58.005Z,2.13
2022-08-01T13:31:03.013Z,2.13
2022-08-01T13:36:08.432Z,2.33
2022-08-01T13:41:11.870Z,2.10
2022-08-01T13:46:15.495Z,2.35
2022-08-01T13:51:23.664Z,1.67
2022-08-01T13:56:28.732Z,1.77
2022-08-01T14:01:34.460Z,2.25
2022-08-01T14:06:39.809Z,1.80
2022-08-01T14:11:45.968Z,1.90
2022-08-01T14:16:49.583Z,2.10
2022-08-01T14:21:54.657Z,1.83
2022-08-01T14:26:58.082Z,1.83
2022-08-01T14:32:01.526Z,2.03
2022-08-01T14:37:06.497Z,1.70
2022-08-01T14:42:11.623Z,1.90
2022-08-01T14:47:21.766Z,2.10
2022-08-01T14:52:27.450Z,1.98
2022-08-01T14:57:31.069Z,1.88
2022-08-01T15:02:34.664Z,1.92
2022-08-01T15:07:51.635Z,2.08
2022-08-01T15:12:58.694Z,1.90
2022-08-01T15:18:02.592Z,1.75
2022-08-01T15:23:07.568Z,1.85
2022-08-01T15:28:11.647Z,1.75
2022-08-01T15:33:15.157Z,1.83
2022-08-01T15:38:20.593Z,1.80
2022-08-01T15:43:24.087Z,1.75
2022-08-01T15:48:30.694Z,2.35
2022-08-01T15:53:35.647Z,1.90
2022-08-01T15:58:39.203Z,1.88
2022-08-01T16:03:42.742Z,2.20
2022-08-01T16:08:47.918Z,2.20
2022-08-01T16:13:51.721Z,2.05
2022-08-01T16:18:55.530Z,1.90
2022-08-01T16:24:00.651Z,1.90
2022-08-01T16:29:04.249Z,1.98
2022-08-01T16:34:07.821Z,1.92
2022-08-01T16:39:15.783Z,1.92
2022-08-01T16:44:28.601Z,1.80
2022-08-01T16:49:37.620Z,2.17
2022-08-01T16:54:42.583Z,2.03
2022-08-01T16:59:46.456Z,1.80
2022-08-01T17:04:49.938Z,1.80
2022-08-01T17:09:58.109Z,2.72
2022-08-01T17:15:01.655Z,3.10
2022-08-01T17:20:05.846Z,2.40
2022-08-01T17:25:15.744Z,2.83
2022-08-01T17:30:19.793Z,2.87
2022-08-01T17:35:23.362Z,2.60
2022-08-01T17:40:40.174Z,2.70
2022-08-01T17:45:50.781Z,2.63
2022-08-01T17:50:54.646Z,2.90
2022-08-01T17:56:01.714Z,2.50
2022-08-01T18:01:05.563Z,2.27
2022-08-01T18:06:13.849Z,2.20
2022-08-01T18:11:19.871Z,2.00
2022-08-01T18:16:25.028Z,2.20
2022-08-01T18:21:30.202Z,2.00
2022-08-01T18:26:35.289Z,2.43
2022-08-01T18:31:38.780Z,1.90
2022-08-01T18:36:42.226Z,2.10
2022-08-01T18:41:49.645Z,2.10
2022-08-01T18:46:55.030Z,1.90
2022-08-01T18:51:59.040Z,1.83
2022-08-01T18:57:04.260Z,1.80
2022-08-01T19:02:08.430Z,1.87
2022-08-01T19:07:12.046Z,1.97
2022-08-01T19:12:17.007Z,2.10
2022-08-01T19:17:21.294Z,1.97
2022-08-01T19:22:28.689Z,2.10
2022-08-01T19:27:38.266Z,1.90
2022-08-01T19:32:44.351Z,2.00
2022-08-01T19:37:52.603Z,2.10
2022-08-01T19:43:00.508Z,2.20
2022-08-01T19:48:04.646Z,2.20
2022-08-01T19:53:12.082Z,2.07
2022-08-01T19:58:27.045Z,2.40
2022-08-01T20:03:36.218Z,2.40
2022-08-01T20:08:39.746Z,2.20
2022-08-01T20:13:46.119Z,2.10
2022-08-01T20:18:49.587Z,2.20
2022-08-01T20:24:02.564Z,2.73
2022-08-01T20:29:08.037Z,2.77
2022-08-01T20:34:15.610Z,3.27
2022-08-01T20:39:21.383Z,3.30
2022-08-01T20:44:32.556Z,3.23
2022-08-01T20:49:38.907Z,3.30
2022-08-01T20:54:43.444Z,3.00
2022-08-01T20:59:55.724Z,2.93
2022-08-01T21:05:06.819Z,2.90
2022-08-01T21:10:12.007Z,2.90
2022-08-01T21:15:26.153Z,2.53
2022-08-01T21:20:32.202Z,2.87
2022-08-01T21:25:36.602Z,2.97
2022-08-01T21:30:42.999Z,3.17
2022-08-01T21:36:06.186Z,3.60
2022-08-01T21:41:11.091Z,3.77
2022-08-01T21:46:19.119Z,3.67
2022-08-01T21:51:33.885Z,3.17
2022-08-01T21:56:45.734Z,3.53
2022-08-01T22:01:58.395Z,2.90
2022-08-01T22:07:03.171Z,3.00
2022-08-01T22:12:08.938Z,2.80
2022-08-01T22:17:18.643Z,2.50
2022-08-01T22:22:51.247Z,2.83
2022-08-01T22:28:06.221Z,3.10
2022-08-01T22:33:17.610Z,2.70
2022-08-01T22:38:22.791Z,2.93
2022-08-01T22:43:30.817Z,3.10
2022-08-01T22:48:44.188Z,3.07
2022-08-01T22:53:56.216Z,2.97
2022-08-01T22:59:03.038Z,3.40
2022-08-01T23:04:13.396Z,2.90
2022-08-01T23:09:17.424Z,3.50
2022-08-01T23:14:23.004Z,3.37
2022-08-01T23:19:29.011Z,2.70
2022-08-01T23:24:34.534Z,2.60
2022-08-01T23:29:38.128Z,2.53
2022-08-01T23:34:43.143Z,2.90
2022-08-01T23:39:46.846Z,3.47
2022-08-01T23:44:50.317Z,3.70
2022-08-01T23:49:55.264Z,3.63
2022-08-01T23:54:58.789Z,3.10
